Impacts METAR Board
IDs:

KBAZ - New Braunfels Muni, TX, US

Updated at: 0900 UTC 26 May 2019
Potential Impact None Slight Moderate High
Time 25/21Z 25/22Z 25/23Z 26/00Z 26/01Z 26/02Z 26/03Z 26/04Z 26/05Z 26/06Z 26/07Z 26/08Z 26/09Z
Temp90 90 89 86 83 78 76 75 75 74 74 75 75
Dewpt70 69 69 69 69 68 67 68 70 71 71 71 71
Altim29.97 29.96 29.95 29.95 29.96 29.97 29.99 30.00 30.00 30.00 30.01 30.00 30.00
VIS10 10 10 10 10 10 10 10 10 10 10 10 10
CIG-- -- -- -- -- -- -- -- -- 14 12 15 28
CoverFEWFEWCLRCLRCLRCLRCLRCLRFEWBKNOVCOVCOVC
FltCatVFRVFRVFRVFRVFRVFRVFRVFRVFRMVFRMVFRMVFRMVFR
WX--------------------------
WDir140150140150140140160150160170170160150
WSpd18 17 16 15 16 9 8 11 12 7 4 9 7
WGst23 -- 23 -- 23 -- -- -- -- -- -- -- --
Raw hourly METARs
KBAZ 252051Z 14018G23KT 10SM FEW047 32/21 A2997 RMK AO2 PK WND 15026/2024 SLP137 60000 T03220211 56019
KBAZ 252151Z 15017KT 10SM FEW044 FEW060 32/21 A2996 RMK AO2 SLP134 T03220206
KBAZ 252251Z 14016G23KT 10SM CLR 32/21 A2995 RMK AO2 SLP132 T03170206
KBAZ 252351Z AUTO 15015KT 10SM CLR 30/21 A2995 RMK AO2 SLP134 60000 T03000206 10328 20289 55004
KBAZ 260051Z AUTO 14016G23KT 10SM CLR 28/21 A2996 RMK AO2 SLP135 T02830206
KBAZ 260151Z AUTO 14009KT 10SM CLR 26/20 A2997 RMK AO2 SLP141 T02560200
KBAZ 260251Z AUTO 16008KT 10SM CLR 24/19 A2999 RMK AO2 SLP147 T02440194 53013
KBAZ 260351Z AUTO 15011KT 10SM CLR 24/20 A3000 RMK AO2 SLP150 T02390200
KBAZ 260451Z AUTO 16012KT 10SM FEW016 24/21 A3000 RMK AO2 SLP151 T02390211
KBAZ 260601Z AUTO 17007KT 10SM BKN014 23/22 A3000 RMK AO2 T02330217
KBAZ 260651Z AUTO 17004KT 10SM OVC012 23/22 A3001 RMK AO2 SLP154 T02330217
KBAZ 260759Z AUTO 16009KT 10SM BKN015 OVC022 24/22 A3000 RMK AO2 T02390217
KBAZ 260851Z AUTO 15007KT 10SM SCT016 BKN028 OVC034 24/22 A3000 RMK AO2 SLP147 T02390217 56005